sensor_id;sensor_type;location;lat;lon;timestamp;temperature;humidity
50989;DHT22;37008;52.210;21.112;2023-12-04T00:01:16;-1.70;99.90
50989;DHT22;37008;52.210;21.112;2023-12-04T00:03:42;-1.70;99.90
50989;DHT22;37008;52.210;21.112;2023-12-04T00:06:08;-1.70;99.90
50989;DHT22;37008;52.210;21.112;2023-12-04T00:08:35;-1.70;99.90
50989;DHT22;37008;52.210;21.112;2023-12-04T00:11:01;-1.70;99.90
50989;DHT22;37008;52.210;21.112;2023-12-04T00:13:27;-1.70;99.90
50989;DHT22;37008;52.210;21.112;2023-12-04T00:15:52;-1.70;99.90
50989;DHT22;37008;52.210;21.112;2023-12-04T00:18:18;-1.70;99.90
50989;DHT22;37008;52.210;21.112;2023-12-04T00:20:43;-1.70;99.90
50989;DHT22;37008;52.210;21.112;2023-12-04T00:23:09;-1.60;99.90
50989;DHT22;37008;52.210;21.112;2023-12-04T00:25:35;-1.70;99.90
50989;DHT22;37008;52.210;21.112;2023-12-04T00:28:00;-1.60;99.90
50989;DHT22;37008;52.210;21.112;2023-12-04T00:30:26;-1.60;99.90
50989;DHT22;37008;52.210;21.112;2023-12-04T00:32:51;-1.60;99.90
50989;DHT22;37008;52.210;21.112;2023-12-04T00:35:17;-1.60;99.90
50989;DHT22;37008;52.210;21.112;2023-12-04T00:37:43;-1.60;99.90
50989;DHT22;37008;52.210;21.112;2023-12-04T00:40:09;-1.50;99.90
50989;DHT22;37008;52.210;21.112;2023-12-04T00:42:34;-1.60;99.90
50989;DHT22;37008;52.210;21.112;2023-12-04T00:45:00;-1.60;99.90
50989;DHT22;37008;52.210;21.112;2023-12-04T00:47:25;-1.60;99.90
50989;DHT22;37008;52.210;21.112;2023-12-04T00:49:51;-1.60;99.90
50989;DHT22;37008;52.210;21.112;2023-12-04T00:52:17;-1.60;99.90
50989;DHT22;37008;52.210;21.112;2023-12-04T00:54:42;-1.50;99.90
50989;DHT22;37008;52.210;21.112;2023-12-04T00:57:08;-1.50;99.90
50989;DHT22;37008;52.210;21.112;2023-12-04T00:59:34;-1.50;99.90
50989;DHT22;37008;52.210;21.112;2023-12-04T01:02:00;-1.20;99.90
50989;DHT22;37008;52.210;21.112;2023-12-04T01:04:26;-1.50;99.90
50989;DHT22;37008;52.210;21.112;2023-12-04T01:06:52;-1.20;99.90
50989;DHT22;37008;52.210;21.112;2023-12-04T01:09:18;-1.50;99.90
50989;DHT22;37008;52.210;21.112;2023-12-04T01:11:43;-1.20;99.90
50989;DHT22;37008;52.210;21.112;2023-12-04T01:14:09;-1.40;99.90
50989;DHT22;37008;52.210;21.112;2023-12-04T01:16:35;-0.70;99.90
50989;DHT22;37008;52.210;21.112;2023-12-04T01:19:00;-1.40;99.90
50989;DHT22;37008;52.210;21.112;2023-12-04T01:21:26;-1.40;99.90
50989;DHT22;37008;52.210;21.112;2023-12-04T01:23:52;-1.20;99.90
50989;DHT22;37008;52.210;21.112;2023-12-04T01:26:17;-1.20;99.90
50989;DHT22;37008;52.210;21.112;2023-12-04T01:28:43;-0.90;99.90
50989;DHT22;37008;52.210;21.112;2023-12-04T01:31:09;-1.40;99.90
50989;DHT22;37008;52.210;21.112;2023-12-04T01:33:34;-1.40;99.90
50989;DHT22;37008;52.210;21.112;2023-12-04T01:36:01;-1.30;99.90
50989;DHT22;37008;52.210;21.112;2023-12-04T01:38:27;-1.20;99.90
50989;DHT22;37008;52.210;21.112;2023-12-04T01:40:52;-0.80;99.90
50989;DHT22;37008;52.210;21.112;2023-12-04T01:43:18;-0.90;99.90
50989;DHT22;37008;52.210;21.112;2023-12-04T01:45:44;-1.30;99.90
50989;DHT22;37008;52.210;21.112;2023-12-04T01:48:11;-0.50;99.90
50989;DHT22;37008;52.210;21.112;2023-12-04T01:50:39;-1.10;99.90
50989;DHT22;37008;52.210;21.112;2023-12-04T01:53:05;-1.30;99.90
50989;DHT22;37008;52.210;21.112;2023-12-04T01:55:32;-1.30;99.90
50989;DHT22;37008;52.210;21.112;2023-12-04T01:58:00;-1.30;99.90
50989;DHT22;37008;52.210;21.112;2023-12-04T02:00:29;-1.30;99.90
50989;DHT22;37008;52.210;21.112;2023-12-04T02:02:55;-1.30;99.90
50989;DHT22;37008;52.210;21.112;2023-12-04T02:05:21;-1.30;99.90
50989;DHT22;37008;52.210;21.112;2023-12-04T02:07:48;-1.30;99.90
50989;DHT22;37008;52.210;21.112;2023-12-04T02:10:14;-1.30;99.90
50989;DHT22;37008;52.210;21.112;2023-12-04T02:12:39;-1.30;99.90
50989;DHT22;37008;52.210;21.112;2023-12-04T02:15:05;-1.20;99.90
50989;DHT22;37008;52.210;21.112;2023-12-04T02:17:32;-1.30;99.90
50989;DHT22;37008;52.210;21.112;2023-12-04T02:19:59;-1.00;99.90
50989;DHT22;37008;52.210;21.112;2023-12-04T02:22:24;-1.40;99.90
50989;DHT22;37008;52.210;21.112;2023-12-04T02:24:50;-1.40;99.90
50989;DHT22;37008;52.210;21.112;2023-12-04T02:27:22;-1.40;99.90
50989;DHT22;37008;52.210;21.112;2023-12-04T02:30:02;-1.40;99.90
50989;DHT22;37008;52.210;21.112;2023-12-04T02:32:33;-1.40;99.90
50989;DHT22;37008;52.210;21.112;2023-12-04T02:35:04;-1.50;99.90
50989;DHT22;37008;52.210;21.112;2023-12-04T02:37:31;-1.60;99.90
50989;DHT22;37008;52.210;21.112;2023-12-04T02:39:58;-1.60;99.90
50989;DHT22;37008;52.210;21.112;2023-12-04T02:42:24;-1.70;99.90
50989;DHT22;37008;52.210;21.112;2023-12-04T02:44:51;-1.70;99.90
50989;DHT22;37008;52.210;21.112;2023-12-04T02:47:17;-1.70;99.90
50989;DHT22;37008;52.210;21.112;2023-12-04T02:49:43;-1.70;99.90
50989;DHT22;37008;52.210;21.112;2023-12-04T02:52:09;-1.50;99.90
50989;DHT22;37008;52.210;21.112;2023-12-04T02:54:34;-1.70;99.90
50989;DHT22;37008;52.210;21.112;2023-12-04T02:57:00;-1.80;99.90
50989;DHT22;37008;52.210;21.112;2023-12-04T02:59:26;-1.80;99.90
50989;DHT22;37008;52.210;21.112;2023-12-04T03:01:51;-1.90;99.90
50989;DHT22;37008;52.210;21.112;2023-12-04T03:04:18;-1.90;99.90
50989;DHT22;37008;52.210;21.112;2023-12-04T03:06:44;-2.00;99.90
50989;DHT22;37008;52.210;21.112;2023-12-04T03:09:10;-2.10;99.90
50989;DHT22;37008;52.210;21.112;2023-12-04T03:11:35;-1.80;99.90
50989;DHT22;37008;52.210;21.112;2023-12-04T03:14:04;-2.10;99.90
50989;DHT22;37008;52.210;21.112;2023-12-04T03:16:30;-2.00;99.90
50989;DHT22;37008;52.210;21.112;2023-12-04T03:18:55;-2.10;99.90
50989;DHT22;37008;52.210;21.112;2023-12-04T03:21:21;-2.10;99.90
50989;DHT22;37008;52.210;21.112;2023-12-04T03:23:46;-2.10;99.90
50989;DHT22;37008;52.210;21.112;2023-12-04T03:26:12;-2.00;99.90
50989;DHT22;37008;52.210;21.112;2023-12-04T03:28:38;-1.70;99.90
50989;DHT22;37008;52.210;21.112;2023-12-04T03:31:05;-2.10;99.90
50989;DHT22;37008;52.210;21.112;2023-12-04T03:33:31;-2.10;99.90
50989;DHT22;37008;52.210;21.112;2023-12-04T03:35:58;-2.10;99.90
50989;DHT22;37008;52.210;21.112;2023-12-04T03:38:24;-2.10;99.90
50989;DHT22;37008;52.210;21.112;2023-12-04T03:40:49;-2.10;99.90
50989;DHT22;37008;52.210;21.112;2023-12-04T03:43:15;-1.90;99.90
50989;DHT22;37008;52.210;21.112;2023-12-04T03:45:41;-2.10;99.90
50989;DHT22;37008;52.210;21.112;2023-12-04T03:48:06;-2.10;99.90
50989;DHT22;37008;52.210;21.112;2023-12-04T03:50:32;-2.10;99.90
50989;DHT22;37008;52.210;21.112;2023-12-04T03:52:58;-2.10;99.90
50989;DHT22;37008;52.210;21.112;2023-12-04T03:55:23;-2.10;99.90
50989;DHT22;37008;52.210;21.112;2023-12-04T03:57:49;-2.10;99.90
50989;DHT22;37008;52.210;21.112;2023-12-04T04:00:15;-2.10;99.90
50989;DHT22;37008;52.210;21.112;2023-12-04T04:02:43;-2.10;99.90
50989;DHT22;37008;52.210;21.112;2023-12-04T04:05:08;-2.10;99.90
50989;DHT22;37008;52.210;21.112;2023-12-04T04:07:34;-2.10;99.90
50989;DHT22;37008;52.210;21.112;2023-12-04T04:10:00;-2.10;99.90
50989;DHT22;37008;52.210;21.112;2023-12-04T04:12:27;-1.70;99.90
50989;DHT22;37008;52.210;21.112;2023-12-04T04:14:53;-2.10;99.90
50989;DHT22;37008;52.210;21.112;2023-12-04T04:17:18;-2.10;99.90
50989;DHT22;37008;52.210;21.112;2023-12-04T04:19:44;-1.70;99.90
50989;DHT22;37008;52.210;21.112;2023-12-04T04:22:10;-2.10;99.90
50989;DHT22;37008;52.210;21.112;2023-12-04T04:24:36;-1.90;99.90
50989;DHT22;37008;52.210;21.112;2023-12-04T04:27:01;-2.20;99.90
50989;DHT22;37008;52.210;21.112;2023-12-04T04:29:27;-2.20;99.90
50989;DHT22;37008;52.210;21.112;2023-12-04T04:31:53;-2.10;99.90
50989;DHT22;37008;52.210;21.112;2023-12-04T04:34:20;-2.20;99.90
50989;DHT22;37008;52.210;21.112;2023-12-04T04:36:46;-2.20;99.90
50989;DHT22;37008;52.210;21.112;2023-12-04T04:39:13;-2.20;99.90
50989;DHT22;37008;52.210;21.112;2023-12-04T04:41:39;-2.20;99.90
50989;DHT22;37008;52.210;21.112;2023-12-04T04:44:05;-2.20;99.90
50989;DHT22;37008;52.210;21.112;2023-12-04T04:46:31;-1.90;99.90
50989;DHT22;37008;52.210;21.112;2023-12-04T04:48:57;-2.30;99.90
50989;DHT22;37008;52.210;21.112;2023-12-04T04:51:22;-2.30;99.90
50989;DHT22;37008;52.210;21.112;2023-12-04T04:53:49;-2.30;99.90
50989;DHT22;37008;52.210;21.112;2023-12-04T04:56:15;-2.30;99.90
50989;DHT22;37008;52.210;21.112;2023-12-04T04:58:41;-2.30;99.90
50989;DHT22;37008;52.210;21.112;2023-12-04T05:01:07;-2.40;99.90
50989;DHT22;37008;52.210;21.112;2023-12-04T05:03:33;-2.40;99.90
50989;DHT22;37008;52.210;21.112;2023-12-04T05:05:58;-2.30;99.90
50989;DHT22;37008;52.210;21.112;2023-12-04T05:08:24;-2.30;99.90
50989;DHT22;37008;52.210;21.112;2023-12-04T05:10:50;-2.40;99.90
50989;DHT22;37008;52.210;21.112;2023-12-04T05:13:15;-2.30;99.90
50989;DHT22;37008;52.210;21.112;2023-12-04T05:15:41;-1.90;99.90
50989;DHT22;37008;52.210;21.112;2023-12-04T05:18:07;-2.40;99.90
50989;DHT22;37008;52.210;21.112;2023-12-04T05:20:32;-2.30;99.90
50989;DHT22;37008;52.210;21.112;2023-12-04T05:22:58;-2.30;99.90
50989;DHT22;37008;52.210;21.112;2023-12-04T05:25:23;-2.10;99.90
50989;DHT22;37008;52.210;21.112;2023-12-04T05:27:49;-1.80;99.90
50989;DHT22;37008;52.210;21.112;2023-12-04T05:30:15;-2.40;99.90
50989;DHT22;37008;52.210;21.112;2023-12-04T05:32:40;-2.40;99.90
50989;DHT22;37008;52.210;21.112;2023-12-04T05:35:06;-2.00;99.90
50989;DHT22;37008;52.210;21.112;2023-12-04T05:37:32;-2.40;99.90
50989;DHT22;37008;52.210;21.112;2023-12-04T05:39:58;-2.40;99.90
50989;DHT22;37008;52.210;21.112;2023-12-04T05:42:23;-2.40;99.90
50989;DHT22;37008;52.210;21.112;2023-12-04T05:44:49;-2.40;99.90
50989;DHT22;37008;52.210;21.112;2023-12-04T05:47:14;-2.40;99.90
50989;DHT22;37008;52.210;21.112;2023-12-04T05:49:40;-2.40;99.90
50989;DHT22;37008;52.210;21.112;2023-12-04T05:52:06;-2.40;99.90
50989;DHT22;37008;52.210;21.112;2023-12-04T05:54:32;-2.30;99.90
50989;DHT22;37008;52.210;21.112;2023-12-04T05:56:58;-2.40;99.90
50989;DHT22;37008;52.210;21.112;2023-12-04T05:59:23;-2.30;99.90
50989;DHT22;37008;52.210;21.112;2023-12-04T06:01:49;-2.40;99.90
50989;DHT22;37008;52.210;21.112;2023-12-04T06:04:15;-2.40;99.90
50989;DHT22;37008;52.210;21.112;2023-12-04T06:06:40;-2.50;99.90
50989;DHT22;37008;52.210;21.112;2023-12-04T06:09:06;-2.40;99.90
50989;DHT22;37008;52.210;21.112;2023-12-04T06:11:32;-2.30;99.90
50989;DHT22;37008;52.210;21.112;2023-12-04T06:13:57;-2.40;99.90
50989;DHT22;37008;52.210;21.112;2023-12-04T06:16:23;-2.50;99.90
50989;DHT22;37008;52.210;21.112;2023-12-04T06:18:52;-2.40;99.90
50989;DHT22;37008;52.210;21.112;2023-12-04T06:21:18;-2.40;99.90
50989;DHT22;37008;52.210;21.112;2023-12-04T06:23:53;-2.40;99.90
50989;DHT22;37008;52.210;21.112;2023-12-04T06:26:19;-2.40;99.90
50989;DHT22;37008;52.210;21.112;2023-12-04T06:28:45;-2.40;99.90
50989;DHT22;37008;52.210;21.112;2023-12-04T06:31:11;-2.50;99.90
50989;DHT22;37008;52.210;21.112;2023-12-04T06:33:37;-2.50;99.90
50989;DHT22;37008;52.210;21.112;2023-12-04T06:36:04;-2.50;99.90
50989;DHT22;37008;52.210;21.112;2023-12-04T06:38:32;-2.40;99.90
50989;DHT22;37008;52.210;21.112;2023-12-04T06:41:01;-2.40;99.90
50989;DHT22;37008;52.210;21.112;2023-12-04T06:43:27;-2.40;99.90
50989;DHT22;37008;52.210;21.112;2023-12-04T06:45:53;-2.40;99.90
50989;DHT22;37008;52.210;21.112;2023-12-04T06:48:22;-2.40;99.90
50989;DHT22;37008;52.210;21.112;2023-12-04T06:50:48;-2.40;99.90
50989;DHT22;37008;52.210;21.112;2023-12-04T06:53:14;-2.40;99.90
50989;DHT22;37008;52.210;21.112;2023-12-04T06:55:39;-2.40;99.90
50989;DHT22;37008;52.210;21.112;2023-12-04T06:58:05;-2.40;99.90
50989;DHT22;37008;52.210;21.112;2023-12-04T07:00:30;-2.20;99.90
50989;DHT22;37008;52.210;21.112;2023-12-04T07:02:56;-2.40;99.90
50989;DHT22;37008;52.210;21.112;2023-12-04T07:05:22;-2.40;99.90
50989;DHT22;37008;52.210;21.112;2023-12-04T07:07:47;-2.30;99.90
50989;DHT22;37008;52.210;21.112;2023-12-04T07:10:13;-2.40;99.90
50989;DHT22;37008;52.210;21.112;2023-12-04T07:12:41;-2.40;99.90
50989;DHT22;37008;52.210;21.112;2023-12-04T07:15:08;-2.00;99.90
50989;DHT22;37008;52.210;21.112;2023-12-04T07:17:35;-2.40;99.90
50989;DHT22;37008;52.210;21.112;2023-12-04T07:20:01;-2.40;99.90
50989;DHT22;37008;52.210;21.112;2023-12-04T07:22:26;-2.20;99.90
50989;DHT22;37008;52.210;21.112;2023-12-04T07:24:52;-2.40;99.90
50989;DHT22;37008;52.210;21.112;2023-12-04T07:27:18;-2.30;99.90
50989;DHT22;37008;52.210;21.112;2023-12-04T07:29:43;-2.00;99.90
50989;DHT22;37008;52.210;21.112;2023-12-04T07:32:09;-2.20;99.90
50989;DHT22;37008;52.210;21.112;2023-12-04T07:34:35;-2.20;99.90
50989;DHT22;37008;52.210;21.112;2023-12-04T07:37:02;-1.10;99.90
50989;DHT22;37008;52.210;21.112;2023-12-04T07:39:28;-2.10;99.90
50989;DHT22;37008;52.210;21.112;2023-12-04T07:41:53;-2.10;99.90
50989;DHT22;37008;52.210;21.112;2023-12-04T07:44:19;-1.70;99.90
50989;DHT22;37008;52.210;21.112;2023-12-04T07:46:44;-2.10;99.90
50989;DHT22;37008;52.210;21.112;2023-12-04T07:49:10;-2.10;99.90
50989;DHT22;37008;52.210;21.112;2023-12-04T07:51:38;-1.10;99.90
50989;DHT22;37008;52.210;21.112;2023-12-04T07:54:04;-1.70;99.90
50989;DHT22;37008;52.210;21.112;2023-12-04T07:56:30;-2.10;99.90
50989;DHT22;37008;52.210;21.112;2023-12-04T07:58:55;-1.90;99.90
50989;DHT22;37008;52.210;21.112;2023-12-04T08:01:22;-2.00;99.90
50989;DHT22;37008;52.210;21.112;2023-12-04T08:03:48;-1.90;99.90
50989;DHT22;37008;52.210;21.112;2023-12-04T08:06:14;-1.90;99.90
50989;DHT22;37008;52.210;21.112;2023-12-04T08:08:40;-1.90;99.90
50989;DHT22;37008;52.210;21.112;2023-12-04T08:11:09;-1.90;99.90
50989;DHT22;37008;52.210;21.112;2023-12-04T08:13:35;-1.90;99.90
50989;DHT22;37008;52.210;21.112;2023-12-04T08:16:00;-1.80;99.90
50989;DHT22;37008;52.210;21.112;2023-12-04T08:18:27;-1.80;99.90
50989;DHT22;37008;52.210;21.112;2023-12-04T08:20:52;-1.80;99.90
50989;DHT22;37008;52.210;21.112;2023-12-04T08:23:18;-1.80;99.90
50989;DHT22;37008;52.210;21.112;2023-12-04T08:25:44;-1.80;99.90
50989;DHT22;37008;52.210;21.112;2023-12-04T08:28:09;-1.80;99.90
50989;DHT22;37008;52.210;21.112;2023-12-04T08:30:35;-1.70;99.90
50989;DHT22;37008;52.210;21.112;2023-12-04T08:33:01;-1.70;99.90
50989;DHT22;37008;52.210;21.112;2023-12-04T08:35:26;-1.70;99.90
50989;DHT22;37008;52.210;21.112;2023-12-04T08:37:52;-1.70;99.90
50989;DHT22;37008;52.210;21.112;2023-12-04T08:40:18;-1.70;99.90
50989;DHT22;37008;52.210;21.112;2023-12-04T08:42:43;-1.80;99.90
50989;DHT22;37008;52.210;21.112;2023-12-04T08:45:10;-1.70;99.90
50989;DHT22;37008;52.210;21.112;2023-12-04T08:47:36;-1.70;99.90
50989;DHT22;37008;52.210;21.112;2023-12-04T08:50:02;-1.70;99.90
50989;DHT22;37008;52.210;21.112;2023-12-04T08:52:28;-1.70;99.90
50989;DHT22;37008;52.210;21.112;2023-12-04T08:54:54;-1.60;99.90
50989;DHT22;37008;52.210;21.112;2023-12-04T08:57:19;-1.70;99.90
50989;DHT22;37008;52.210;21.112;2023-12-04T08:59:45;-1.70;99.90
50989;DHT22;37008;52.210;21.112;2023-12-04T09:02:11;-1.70;99.90
50989;DHT22;37008;52.210;21.112;2023-12-04T09:04:37;-1.60;99.90
50989;DHT22;37008;52.210;21.112;2023-12-04T09:07:03;-1.50;99.90
50989;DHT22;37008;52.210;21.112;2023-12-04T09:09:28;-1.60;99.90
50989;DHT22;37008;52.210;21.112;2023-12-04T09:11:55;-1.50;99.90
50989;DHT22;37008;52.210;21.112;2023-12-04T09:14:21;-1.50;99.90
50989;DHT22;37008;52.210;21.112;2023-12-04T09:16:46;-1.50;99.90
50989;DHT22;37008;52.210;21.112;2023-12-04T09:19:12;-1.50;99.90
50989;DHT22;37008;52.210;21.112;2023-12-04T09:21:38;-1.50;99.90
50989;DHT22;37008;52.210;21.112;2023-12-04T09:24:04;-1.60;99.90
50989;DHT22;37008;52.210;21.112;2023-12-04T09:26:30;-1.60;99.90
50989;DHT22;37008;52.210;21.112;2023-12-04T09:28:55;-1.60;99.90
50989;DHT22;37008;52.210;21.112;2023-12-04T09:31:21;-1.60;99.90
50989;DHT22;37008;52.210;21.112;2023-12-04T09:33:47;-1.60;99.90
50989;DHT22;37008;52.210;21.112;2023-12-04T09:36:12;-1.50;99.90
50989;DHT22;37008;52.210;21.112;2023-12-04T09:38:38;-1.50;99.90
50989;DHT22;37008;52.210;21.112;2023-12-04T09:41:05;-1.50;99.90
50989;DHT22;37008;52.210;21.112;2023-12-04T09:43:32;-1.40;99.90
50989;DHT22;37008;52.210;21.112;2023-12-04T09:45:59;-1.50;99.90
50989;DHT22;37008;52.210;21.112;2023-12-04T09:48:26;-1.50;99.90
50989;DHT22;37008;52.210;21.112;2023-12-04T09:50:53;-1.50;99.90
50989;DHT22;37008;52.210;21.112;2023-12-04T09:53:20;-1.50;99.90
50989;DHT22;37008;52.210;21.112;2023-12-04T09:55:49;-1.60;99.90
50989;DHT22;37008;52.210;21.112;2023-12-04T09:58:16;-1.50;99.90
50989;DHT22;37008;52.210;21.112;2023-12-04T10:00:43;-1.50;99.90
50989;DHT22;37008;52.210;21.112;2023-12-04T10:03:09;-1.30;99.90
50989;DHT22;37008;52.210;21.112;2023-12-04T10:05:35;-1.40;99.90
50989;DHT22;37008;52.210;21.112;2023-12-04T10:08:01;-1.40;99.90
50989;DHT22;37008;52.210;21.112;2023-12-04T10:10:27;-1.40;99.90
50989;DHT22;37008;52.210;21.112;2023-12-04T10:12:52;-1.40;99.90
50989;DHT22;37008;52.210;21.112;2023-12-04T10:15:18;-1.40;99.90
50989;DHT22;37008;52.210;21.112;2023-12-04T10:17:44;-1.50;99.90
50989;DHT22;37008;52.210;21.112;2023-12-04T10:20:12;-1.50;99.90
50989;DHT22;37008;52.210;21.112;2023-12-04T10:22:39;-1.50;99.90
50989;DHT22;37008;52.210;21.112;2023-12-04T10:25:15;-1.40;99.90
50989;DHT22;37008;52.210;21.112;2023-12-04T10:27:41;-1.40;99.90
50989;DHT22;37008;52.210;21.112;2023-12-04T10:30:07;-1.30;99.90
50989;DHT22;37008;52.210;21.112;2023-12-04T10:32:38;-1.20;99.90
50989;DHT22;37008;52.210;21.112;2023-12-04T10:35:05;-1.10;99.90
50989;DHT22;37008;52.210;21.112;2023-12-04T10:37:36;-1.00;99.90
50989;DHT22;37008;52.210;21.112;2023-12-04T10:40:02;-1.00;99.90
50989;DHT22;37008;52.210;21.112;2023-12-04T10:42:29;-1.00;99.90
50989;DHT22;37008;52.210;21.112;2023-12-04T10:45:00;-0.90;99.90
50989;DHT22;37008;52.210;21.112;2023-12-04T10:47:29;-0.90;99.90
50989;DHT22;37008;52.210;21.112;2023-12-04T10:49:56;-0.80;99.90
50989;DHT22;37008;52.210;21.112;2023-12-04T10:52:22;-0.90;99.90
50989;DHT22;37008;52.210;21.112;2023-12-04T10:54:48;-0.80;99.90
50989;DHT22;37008;52.210;21.112;2023-12-04T10:57:36;-0.80;99.90
50989;DHT22;37008;52.210;21.112;2023-12-04T11:00:04;-0.80;99.90
50989;DHT22;37008;52.210;21.112;2023-12-04T11:02:34;-0.80;99.90
50989;DHT22;37008;52.210;21.112;2023-12-04T11:05:11;-0.80;99.90
50989;DHT22;37008;52.210;21.112;2023-12-04T11:07:48;-0.70;99.90
50989;DHT22;37008;52.210;21.112;2023-12-04T11:10:17;-0.70;99.90
50989;DHT22;37008;52.210;21.112;2023-12-04T11:12:45;-0.70;99.90
50989;DHT22;37008;52.210;21.112;2023-12-04T11:15:16;-0.60;99.90
50989;DHT22;37008;52.210;21.112;2023-12-04T11:17:43;-0.50;99.90
50989;DHT22;37008;52.210;21.112;2023-12-04T11:20:15;-0.40;99.90
50989;DHT22;37008;52.210;21.112;2023-12-04T11:22:45;-0.40;99.90
50989;DHT22;37008;52.210;21.112;2023-12-04T11:25:13;-0.40;99.90
50989;DHT22;37008;52.210;21.112;2023-12-04T11:27:40;-0.30;99.90
50989;DHT22;37008;52.210;21.112;2023-12-04T11:30:07;-0.20;99.90
50989;DHT22;37008;52.210;21.112;2023-12-04T11:32:44;-0.20;99.90
50989;DHT22;37008;52.210;21.112;2023-12-04T11:35:13;-0.20;99.90
50989;DHT22;37008;52.210;21.112;2023-12-04T11:37:41;-0.10;99.90
50989;DHT22;37008;52.210;21.112;2023-12-04T11:40:11;-0.10;99.90
50989;DHT22;37008;52.210;21.112;2023-12-04T11:42:37;-0.20;99.90
50989;DHT22;37008;52.210;21.112;2023-12-04T11:45:05;-0.10;99.90
50989;DHT22;37008;52.210;21.112;2023-12-04T11:47:51;-0.10;99.90
50989;DHT22;37008;52.210;21.112;2023-12-04T11:50:20;-0.10;99.90
50989;DHT22;37008;52.210;21.112;2023-12-04T11:52:47;-0.10;99.90
50989;DHT22;37008;52.210;21.112;2023-12-04T11:55:16;-0.10;99.90
50989;DHT22;37008;52.210;21.112;2023-12-04T11:57:42;-0.10;99.90
50989;DHT22;37008;52.210;21.112;2023-12-04T12:05:19;-0.10;99.90
50989;DHT22;37008;52.210;21.112;2023-12-04T12:07:46;-0.10;99.90
50989;DHT22;37008;52.210;21.112;2023-12-04T12:10:12;0.00;99.90
50989;DHT22;37008;52.210;21.112;2023-12-04T12:12:44;0.00;99.90
50989;DHT22;37008;52.210;21.112;2023-12-04T12:15:10;0.10;99.90
50989;DHT22;37008;52.210;21.112;2023-12-04T12:17:41;0.10;99.90
50989;DHT22;37008;52.210;21.112;2023-12-04T12:20:07;0.10;99.90
50989;DHT22;37008;52.210;21.112;2023-12-04T12:22:34;0.10;99.90
50989;DHT22;37008;52.210;21.112;2023-12-04T12:25:01;0.10;99.90
50989;DHT22;37008;52.210;21.112;2023-12-04T12:27:30;0.10;99.90
50989;DHT22;37008;52.210;21.112;2023-12-04T12:29:56;0.10;99.90
50989;DHT22;37008;52.210;21.112;2023-12-04T12:32:23;0.10;99.90
50989;DHT22;37008;52.210;21.112;2023-12-04T12:34:48;0.10;99.90
50989;DHT22;37008;52.210;21.112;2023-12-04T12:37:15;0.20;99.90
50989;DHT22;37008;52.210;21.112;2023-12-04T12:39:40;0.10;99.90
50989;DHT22;37008;52.210;21.112;2023-12-04T12:42:06;0.10;99.90
50989;DHT22;37008;52.210;21.112;2023-12-04T12:44:40;0.10;99.90
50989;DHT22;37008;52.210;21.112;2023-12-04T12:47:06;0.10;99.90
50989;DHT22;37008;52.210;21.112;2023-12-04T12:49:33;0.10;99.90
50989;DHT22;37008;52.210;21.112;2023-12-04T12:52:05;0.10;99.90
50989;DHT22;37008;52.210;21.112;2023-12-04T12:54:33;0.10;99.90
50989;DHT22;37008;52.210;21.112;2023-12-04T12:57:01;0.10;99.90
50989;DHT22;37008;52.210;21.112;2023-12-04T12:59:27;0.10;99.90
50989;DHT22;37008;52.210;21.112;2023-12-04T13:01:53;0.10;99.90
50989;DHT22;37008;52.210;21.112;2023-12-04T13:04:19;0.10;99.90
50989;DHT22;37008;52.210;21.112;2023-12-04T13:06:45;0.10;99.90
50989;DHT22;37008;52.210;21.112;2023-12-04T13:09:12;0.00;99.90
50989;DHT22;37008;52.210;21.112;2023-12-04T13:11:46;0.00;99.90
50989;DHT22;37008;52.210;21.112;2023-12-04T13:14:12;0.00;99.90
50989;DHT22;37008;52.210;21.112;2023-12-04T13:16:39;0.00;99.90
50989;DHT22;37008;52.210;21.112;2023-12-04T13:19:05;0.00;99.90
50989;DHT22;37008;52.210;21.112;2023-12-04T13:21:31;-0.10;99.90
50989;DHT22;37008;52.210;21.112;2023-12-04T13:23:57;0.40;99.90
50989;DHT22;37008;52.210;21.112;2023-12-04T13:26:26;-0.10;99.90
50989;DHT22;37008;52.210;21.112;2023-12-04T13:28:51;0.20;99.90
50989;DHT22;37008;52.210;21.112;2023-12-04T13:31:18;-0.20;99.90
50989;DHT22;37008;52.210;21.112;2023-12-04T13:33:45;-0.20;99.90
50989;DHT22;37008;52.210;21.112;2023-12-04T13:36:13;-0.20;99.90
50989;DHT22;37008;52.210;21.112;2023-12-04T13:38:39;-0.20;99.90
50989;DHT22;37008;52.210;21.112;2023-12-04T13:41:05;-0.30;99.90
50989;DHT22;37008;52.210;21.112;2023-12-04T13:43:49;-0.30;99.90
50989;DHT22;37008;52.210;21.112;2023-12-04T13:46:17;-0.40;99.90
50989;DHT22;37008;52.210;21.112;2023-12-04T13:48:43;-0.40;99.90
50989;DHT22;37008;52.210;21.112;2023-12-04T13:51:10;-0.50;99.90
50989;DHT22;37008;52.210;21.112;2023-12-04T13:53:36;-0.50;99.90
50989;DHT22;37008;52.210;21.112;2023-12-04T13:56:11;-0.50;99.90
50989;DHT22;37008;52.210;21.112;2023-12-04T13:58:49;-0.60;99.90
50989;DHT22;37008;52.210;21.112;2023-12-04T14:01:25;-0.60;99.90
50989;DHT22;37008;52.210;21.112;2023-12-04T14:03:54;-0.60;99.90
50989;DHT22;37008;52.210;21.112;2023-12-04T14:06:21;-0.70;99.90
50989;DHT22;37008;52.210;21.112;2023-12-04T14:08:47;-0.70;99.90
50989;DHT22;37008;52.210;21.112;2023-12-04T14:11:13;-0.70;99.90
50989;DHT22;37008;52.210;21.112;2023-12-04T14:13:40;-0.80;99.90
50989;DHT22;37008;52.210;21.112;2023-12-04T14:16:06;-0.80;99.90
50989;DHT22;37008;52.210;21.112;2023-12-04T14:18:34;-0.80;99.90
50989;DHT22;37008;52.210;21.112;2023-12-04T14:21:00;-0.80;99.90
50989;DHT22;37008;52.210;21.112;2023-12-04T14:23:25;-0.80;99.90
50989;DHT22;37008;52.210;21.112;2023-12-04T14:25:52;-0.80;99.90
50989;DHT22;37008;52.210;21.112;2023-12-04T14:28:18;-0.80;99.90
50989;DHT22;37008;52.210;21.112;2023-12-04T14:30:43;-0.90;99.90
50989;DHT22;37008;52.210;21.112;2023-12-04T14:33:09;-0.90;99.90
50989;DHT22;37008;52.210;21.112;2023-12-04T14:35:36;-0.80;99.90
50989;DHT22;37008;52.210;21.112;2023-12-04T14:38:04;-0.90;99.90
50989;DHT22;37008;52.210;21.112;2023-12-04T14:40:31;-0.20;99.90
50989;DHT22;37008;52.210;21.112;2023-12-04T14:42:56;-1.00;99.90
50989;DHT22;37008;52.210;21.112;2023-12-04T14:45:22;-1.00;99.90
50989;DHT22;37008;52.210;21.112;2023-12-04T14:47:48;-1.00;99.90
50989;DHT22;37008;52.210;21.112;2023-12-04T14:50:17;-1.00;99.90
50989;DHT22;37008;52.210;21.112;2023-12-04T14:52:42;-1.10;99.90
50989;DHT22;37008;52.210;21.112;2023-12-04T14:55:15;-1.10;99.90
50989;DHT22;37008;52.210;21.112;2023-12-04T14:57:51;-1.20;99.90
50989;DHT22;37008;52.210;21.112;2023-12-04T15:00:21;-1.10;99.90
50989;DHT22;37008;52.210;21.112;2023-12-04T15:03:05;-1.10;99.90
50989;DHT22;37008;52.210;21.112;2023-12-04T15:06:00;-1.10;99.90
50989;DHT22;37008;52.210;21.112;2023-12-04T15:08:30;-1.10;99.90
50989;DHT22;37008;52.210;21.112;2023-12-04T15:11:10;-1.20;99.90
50989;DHT22;37008;52.210;21.112;2023-12-04T15:13:55;-1.20;99.90
50989;DHT22;37008;52.210;21.112;2023-12-04T15:16:26;-1.30;99.90
50989;DHT22;37008;52.210;21.112;2023-12-04T15:19:27;-1.30;99.90
50989;DHT22;37008;52.210;21.112;2023-12-04T15:22:02;-1.30;99.90